Time;durP1;ratioP1;P1;durP2;ratioP2;P2;SDS_P1;SDS_P2;PMS_P1;PMS_P2;Temp;Humidity;BMP_temperature;BMP_pressure;BME280_temperature;BME280_humidity;BME280_pressure;Samples;Min_cycle;Max_cycle;Signal;HPM_P1;HPM_P2
2022/02/27 00:02:35;;;;;;;6.68;3.28;;;-2.80;99.90;;;;;;5059703;28;20626;-65
2022/02/27 00:06:00;;;;;;;10.45;4.07;;;-2.80;99.90;;;;;;5062250;28;20048;-65
2022/02/27 00:09:28;;;;;;;14.43;4.55;;;-2.80;99.90;;;;;;5064681;28;20068;-65
2022/02/27 00:12:51;;;;;;;11.88;3.88;;;-2.90;99.90;;;;;;5067795;28;20052;-65
2022/02/27 00:16:16;;;;;;;8.32;3.30;;;-2.90;99.90;;;;;;5074780;28;20043;-63
2022/02/27 00:19:42;;;;;;;3.70;2.35;;;-3.00;99.90;;;;;;5074159;28;20033;-63
2022/02/27 00:23:07;;;;;;;10.68;4.03;;;-2.90;99.90;;;;;;5064393;28;20095;-64
2022/02/27 00:26:32;;;;;;;12.20;4.00;;;-3.00;99.90;;;;;;5078621;28;20040;-65
2022/02/27 00:29:58;;;;;;;13.45;4.55;;;-3.10;99.90;;;;;;5068652;28;20430;-63
2022/02/27 00:33:23;;;;;;;11.30;4.05;;;-3.10;99.90;;;;;;5069717;28;20033;-64
2022/02/27 00:36:51;;;;;;;6.05;2.47;;;-3.20;99.90;;;;;;5083179;28;20510;-64
2022/02/27 00:40:14;;;;;;;9.93;3.40;;;-3.20;99.90;;;;;;5063451;28;20047;-65
2022/02/27 00:43:39;;;;;;;9.10;3.38;;;-3.20;99.90;;;;;;5068235;28;20052;-65
2022/02/27 00:47:04;;;;;;;11.55;3.47;;;-3.20;99.90;;;;;;5067902;28;20056;-65
2022/02/27 00:50:30;;;;;;;8.00;3.08;;;-3.20;99.90;;;;;;5068905;28;20040;-66
2022/02/27 00:53:55;;;;;;;7.47;3.08;;;-3.20;99.90;;;;;;5058179;28;20404;-65
2022/02/27 00:57:23;;;;;;;9.82;2.90;;;-3.20;99.90;;;;;;5061946;28;20040;-65
2022/02/27 01:00:47;;;;;;;8.32;3.20;;;-3.10;99.90;;;;;;5078776;28;20495;-65
2022/02/27 01:04:13;;;;;;;7.38;3.13;;;-3.10;99.90;;;;;;5051042;28;20087;-65
2022/02/27 01:07:38;;;;;;;9.90;4.10;;;-3.10;99.90;;;;;;5065153;28;20044;-65
2022/02/27 01:11:04;;;;;;;7.75;2.90;;;-3.20;99.90;;;;;;5078129;28;20495;-63
2022/02/27 01:14:29;;;;;;;9.73;3.75;;;-3.30;99.90;;;;;;5051156;28;20033;-65
2022/02/27 01:17:54;;;;;;;9.02;3.28;;;-3.40;99.90;;;;;;5079889;28;20047;-65
2022/02/27 01:21:20;;;;;;;10.40;3.70;;;-3.40;99.90;;;;;;5085502;28;20042;-64
2022/02/27 01:24:45;;;;;;;7.20;2.55;;;-3.40;99.90;;;;;;5050748;28;20044;-64
2022/02/27 01:28:10;;;;;;;5.13;2.03;;;-3.50;99.90;;;;;;5083151;28;20039;-64
2022/02/27 01:31:51;;;;;;;7.72;3.20;;;-3.50;99.90;;;;;;5083526;28;20218;-64
2022/02/27 01:35:16;;;;;;;5.95;2.55;;;-3.50;99.90;;;;;;5050838;28;20103;-64
2022/02/27 01:38:41;;;;;;;5.07;2.28;;;-3.60;99.90;;;;;;5079880;28;20036;-64
2022/02/27 01:42:07;;;;;;;11.32;3.17;;;-3.60;99.90;;;;;;5063610;28;20119;-63
2022/02/27 01:45:32;;;;;;;6.55;3.30;;;-3.60;99.90;;;;;;5090890;28;20063;-64
2022/02/27 01:48:57;;;;;;;10.32;4.50;;;-3.60;99.90;;;;;;5087199;28;20043;-64
2022/02/27 01:52:23;;;;;;;7.82;3.03;;;-3.60;99.90;;;;;;5070529;28;20515;-62
2022/02/27 01:55:48;;;;;;;10.80;3.88;;;-3.60;99.90;;;;;;5079437;28;20039;-62
2022/02/27 01:59:14;;;;;;;10.63;4.05;;;-3.60;99.90;;;;;;5079102;28;20039;-65
2022/02/27 02:02:39;;;;;;;9.60;3.53;;;-3.60;99.90;;;;;;5064009;28;20041;-64
2022/02/27 02:06:04;;;;;;;8.57;3.42;;;-3.60;99.90;;;;;;5076972;28;20430;-63
2022/02/27 02:09:30;;;;;;;9.13;3.58;;;-3.50;99.90;;;;;;5090340;28;20491;-64
2022/02/27 02:12:55;;;;;;;5.72;2.90;;;-3.40;99.90;;;;;;5079295;28;20083;-64
2022/02/27 02:16:21;;;;;;;10.10;3.83;;;-3.40;99.90;;;;;;5082285;28;20036;-64
2022/02/27 02:19:46;;;;;;;7.40;3.50;;;-3.40;99.90;;;;;;5062079;28;20078;-64
2022/02/27 02:23:11;;;;;;;9.32;2.92;;;-3.50;99.90;;;;;;5078687;28;20036;-64
2022/02/27 02:26:37;;;;;;;8.77;3.72;;;-3.60;99.90;;;;;;5086466;28;20075;-62
2022/02/27 02:30:02;;;;;;;12.15;3.45;;;-3.60;99.90;;;;;;5086495;28;20097;-62
2022/02/27 02:33:27;;;;;;;11.07;4.13;;;-3.70;99.90;;;;;;5083739;28;20518;-62
2022/02/27 02:36:53;;;;;;;11.38;4.47;;;-3.60;99.90;;;;;;5079000;28;20028;-62
2022/02/27 02:40:18;;;;;;;11.75;5.43;;;-3.60;99.90;;;;;;5072430;28;20977;-64
2022/02/27 02:43:43;;;;;;;8.18;3.28;;;-3.70;99.90;;;;;;5080274;28;20055;-62
2022/02/27 02:47:09;;;;;;;12.07;3.20;;;-3.70;99.90;;;;;;5078569;28;20035;-62
2022/02/27 02:50:34;;;;;;;8.45;3.45;;;-3.60;99.90;;;;;;5062535;28;20029;-62
2022/02/27 02:53:59;;;;;;;11.55;4.25;;;-3.50;99.90;;;;;;5076241;28;20096;-62
2022/02/27 02:57:25;;;;;;;9.25;3.83;;;-3.50;99.90;;;;;;5089074;28;20403;-62
2022/02/27 03:00:50;;;;;;;12.98;4.70;;;-3.50;99.90;;;;;;5067694;28;20036;-62
2022/02/27 03:04:16;;;;;;;12.45;5.13;;;-3.50;99.90;;;;;;5083396;28;20075;-62
2022/02/27 03:07:41;;;;;;;10.65;4.75;;;-3.60;99.90;;;;;;5088996;28;20028;-62
2022/02/27 03:11:06;;;;;;;6.80;3.45;;;-3.60;99.90;;;;;;5083504;28;20127;-62
2022/02/27 03:14:32;;;;;;;8.50;3.72;;;-3.70;99.90;;;;;;5081083;28;20400;-62
2022/02/27 03:17:57;;;;;;;8.55;2.90;;;-3.70;99.90;;;;;;5048930;28;20057;-62
2022/02/27 03:21:22;;;;;;;13.77;4.70;;;-3.80;99.90;;;;;;5085478;28;20058;-62
2022/02/27 03:24:48;;;;;;;12.27;4.88;;;-3.80;99.90;;;;;;5083225;28;20130;-62
2022/02/27 03:28:13;;;;;;;17.00;4.72;;;-3.80;99.90;;;;;;5048779;28;20396;-62
2022/02/27 03:31:38;;;;;;;9.50;3.63;;;-3.90;99.90;;;;;;5085351;28;20111;-62
2022/02/27 03:35:04;;;;;;;6.88;3.00;;;-3.90;99.90;;;;;;5071257;28;20094;-62
2022/02/27 03:38:29;;;;;;;11.00;3.92;;;-3.90;99.90;;;;;;5077317;28;20032;-63
2022/02/27 03:41:55;;;;;;;7.45;3.33;;;-3.90;99.90;;;;;;5084873;28;20044;-62
2022/02/27 03:45:20;;;;;;;7.13;2.97;;;-4.00;99.90;;;;;;5074742;28;20412;-62
2022/02/27 03:48:45;;;;;;;7.65;3.25;;;-4.00;99.90;;;;;;5077140;28;20036;-62
2022/02/27 03:52:14;;;;;;;8.77;4.25;;;-4.10;99.90;;;;;;5076583;28;20495;-62
2022/02/27 03:55:39;;;;;;;8.35;3.67;;;-4.10;99.90;;;;;;5066600;28;20519;-62
2022/02/27 03:59:04;;;;;;;11.55;3.75;;;-4.20;99.90;;;;;;5083168;28;20043;-61
2022/02/27 04:02:30;;;;;;;3.38;2.00;;;-4.20;99.90;;;;;;5048384;28;20033;-62
2022/02/27 04:05:55;;;;;;;11.50;4.07;;;-4.10;99.90;;;;;;5080179;28;20075;-62
2022/02/27 04:09:21;;;;;;;10.25;3.33;;;-4.10;99.90;;;;;;5079437;28;20024;-62
2022/02/27 04:12:46;;;;;;;6.75;3.45;;;-4.20;99.90;;;;;;5048207;28;20037;-63
2022/02/27 04:16:11;;;;;;;9.45;4.15;;;-4.20;99.90;;;;;;5084358;28;20651;-62
2022/02/27 04:19:37;;;;;;;12.27;4.00;;;-4.20;99.90;;;;;;5067917;28;20532;-62
2022/02/27 04:23:02;;;;;;;10.48;3.38;;;-4.20;99.90;;;;;;5084633;28;20040;-62
2022/02/27 04:26:27;;;;;;;13.55;3.90;;;-4.20;99.90;;;;;;5077118;28;20047;-62
2022/02/27 04:29:53;;;;;;;11.95;3.70;;;-4.30;99.90;;;;;;5067120;28;20036;-62
2022/02/27 04:33:18;;;;;;;11.15;4.20;;;-4.20;99.90;;;;;;5076795;28;20067;-62
2022/02/27 04:36:43;;;;;;;11.02;4.03;;;-4.20;99.90;;;;;;5076725;28;20040;-62
2022/02/27 04:40:09;;;;;;;11.23;3.65;;;-4.30;99.90;;;;;;5084757;28;20087;-63
2022/02/27 04:43:34;;;;;;;7.70;3.70;;;-4.30;99.90;;;;;;5077554;28;20067;-63
2022/02/27 04:47:00;;;;;;;11.15;3.45;;;-4.30;99.90;;;;;;5081033;28;20086;-62
2022/02/27 04:50:25;;;;;;;7.43;3.83;;;-4.30;99.90;;;;;;5067934;28;20459;-63
2022/02/27 04:53:51;;;;;;;9.82;3.38;;;-4.30;99.90;;;;;;5048278;28;20033;-63
2022/02/27 04:56:31;;;;;;;13.18;3.70;;;-4.30;99.90;;;;;;5047879;28;20045;-49
2022/02/27 04:58:56;;;;;;;11.73;4.45;;;-4.30;99.90;;;;;;5084892;28;20399;-53
2022/02/27 05:01:22;;;;;;;13.60;4.22;;;-4.30;99.90;;;;;;5088253;28;20032;-50
2022/02/27 05:03:47;;;;;;;8.10;2.75;;;-4.30;99.90;;;;;;5088088;28;20503;-47
2022/02/27 05:06:14;;;;;;;9.82;4.13;;;-4.30;99.90;;;;;;5091667;28;20591;-51
2022/02/27 05:08:40;;;;;;;9.48;4.05;;;-4.30;99.90;;;;;;5089477;28;20403;-52
2022/02/27 05:11:06;;;;;;;9.30;4.10;;;-4.30;99.90;;;;;;5091527;28;20028;-47
2022/02/27 05:13:31;;;;;;;13.93;4.32;;;-4.30;99.90;;;;;;5089483;28;20070;-48
2022/02/27 05:15:57;;;;;;;9.50;4.57;;;-4.20;99.90;;;;;;5091728;28;20028;-47
2022/02/27 05:18:22;;;;;;;11.93;4.40;;;-4.20;99.90;;;;;;5089314;28;20036;-46
2022/02/27 05:20:48;;;;;;;14.05;4.15;;;-4.20;99.90;;;;;;5091503;28;20111;-48
2022/02/27 05:23:13;;;;;;;9.27;3.78;;;-4.30;99.90;;;;;;5090775;28;20094;-48
2022/02/27 05:25:39;;;;;;;10.98;4.18;;;-4.30;99.90;;;;;;5069609;28;20112;-49
2022/02/27 05:28:04;;;;;;;7.07;3.72;;;-4.30;99.90;;;;;;5090428;28;20030;-48
2022/02/27 05:30:30;;;;;;;7.32;3.63;;;-4.20;99.90;;;;;;5070635;28;20036;-47
2022/02/27 05:32:55;;;;;;;11.95;4.05;;;-3.80;99.90;;;;;;5090259;28;20024;-49
2022/02/27 05:35:21;;;;;;;14.20;4.07;;;-3.70;99.90;;;;;;5072050;28;20035;-47
2022/02/27 05:37:47;;;;;;;7.90;3.72;;;-3.80;99.90;;;;;;5090306;28;20050;-51
2022/02/27 05:40:13;;;;;;;12.32;5.13;;;-3.90;99.90;;;;;;5071300;28;20045;-52
2022/02/27 05:42:38;;;;;;;10.77;4.00;;;-3.90;99.90;;;;;;5083797;28;20073;-48
2022/02/27 05:45:05;;;;;;;13.38;5.35;;;-3.90;99.90;;;;;;5091078;28;20525;-48
2022/02/27 05:47:31;;;;;;;11.57;4.60;;;-3.90;99.90;;;;;;5088965;28;20032;-52
2022/02/27 05:49:57;;;;;;;14.65;6.00;;;-3.80;99.90;;;;;;5090836;28;20518;-53
2022/02/27 05:52:22;;;;;;;18.67;8.20;;;-3.60;99.90;;;;;;5069998;28;20094;-50
2022/02/27 05:54:48;;;;;;;22.63;10.00;;;-3.20;99.90;;;;;;5090157;28;20040;-50
2022/02/27 05:57:14;;;;;;;22.60;7.82;;;-2.70;99.90;;;;;;5071249;28;20033;-53
2022/02/27 05:59:39;;;;;;;29.88;10.80;;;-2.50;99.90;;;;;;5089941;28;20035;-51
2022/02/27 06:02:05;;;;;;;37.95;11.10;;;-2.20;99.90;;;;;;5072210;28;20350;-49
2022/02/27 06:04:31;;;;;;;42.45;11.85;;;-1.90;99.90;;;;;;5089894;28;20043;-51
2022/02/27 06:06:56;;;;;;;20.98;9.23;;;-1.80;99.90;;;;;;5073622;28;20400;-49
2022/02/27 06:09:22;;;;;;;28.77;9.88;;;-1.60;99.90;;;;;;5089764;28;20036;-49
2022/02/27 06:11:48;;;;;;;28.20;10.77;;;-1.50;99.90;;;;;;5074519;28;20025;-49
2022/02/27 06:14:14;;;;;;;120.00;18.38;;;-1.40;99.90;;;;;;5089401;28;20024;-51
2022/02/27 06:16:39;;;;;;;30.25;8.68;;;-1.30;99.90;;;;;;5075535;28;20055;-49
2022/02/27 06:19:05;;;;;;;48.60;11.13;;;-1.30;99.90;;;;;;5089708;28;20239;-51
2022/02/27 06:21:30;;;;;;;49.58;13.30;;;-1.20;99.90;;;;;;5076780;28;20078;-52
2022/02/27 06:23:56;;;;;;;36.55;10.93;;;-1.10;99.90;;;;;;5089104;28;21049;-50
2022/02/27 06:26:21;;;;;;;55.10;13.00;;;-1.00;99.90;;;;;;5088156;28;20048;-48
2022/02/27 06:28:47;;;;;;;54.58;13.07;;;-1.00;99.90;;;;;;5090014;28;20515;-52
2022/02/27 06:31:14;;;;;;;31.40;10.35;;;-0.90;99.90;;;;;;5088341;28;20016;-50
2022/02/27 06:33:39;;;;;;;50.03;12.23;;;-0.90;99.90;;;;;;5090055;28;20028;-49
2022/02/27 06:36:05;;;;;;;78.10;13.73;;;-0.90;99.90;;;;;;5088099;28;20051;-50
2022/02/27 06:38:31;;;;;;;61.58;13.88;;;-0.80;99.90;;;;;;5090098;28;20401;-50
2022/02/27 06:40:56;;;;;;;29.42;10.63;;;-0.80;99.90;;;;;;5087820;28;20399;-47
2022/02/27 06:43:22;;;;;;;42.58;10.90;;;-0.70;99.90;;;;;;5082835;28;20040;-51
2022/02/27 06:45:47;;;;;;;19.65;8.63;;;-0.70;99.90;;;;;;5087820;28;20028;-48
2022/02/27 06:48:14;;;;;;;33.70;10.73;;;-0.60;99.90;;;;;;5089719;28;20510;-50
2022/02/27 06:50:39;;;;;;;24.17;8.63;;;-0.60;99.90;;;;;;5087545;28;20032;-49
2022/02/27 06:53:05;;;;;;;38.25;11.18;;;-0.50;99.90;;;;;;5089817;28;20456;-51
2022/02/27 06:55:30;;;;;;;28.30;10.32;;;-0.40;99.90;;;;;;5087529;28;20522;-50
2022/02/27 06:57:56;;;;;;;46.17;10.38;;;-0.40;99.90;;;;;;5089980;28;20035;-50
2022/02/27 07:00:21;;;;;;;39.00;9.85;;;-0.40;99.90;;;;;;5087468;28;20028;-48
2022/02/27 07:02:47;;;;;;;56.42;11.93;;;-0.30;99.90;;;;;;5089426;28;20024;-49
2022/02/27 07:05:13;;;;;;;61.00;12.70;;;-0.30;99.90;;;;;;5087516;28;20043;-48
2022/02/27 07:07:39;;;;;;;86.95;15.52;;;-0.20;99.90;;;;;;5089323;28;20055;-50
2022/02/27 07:10:06;;;;;;;142.02;17.27;;;-0.20;99.90;;;;;;5089437;28;20507;-47
2022/02/27 07:12:34;;;;;;;51.30;10.05;;;-0.10;99.90;;;;;;5087391;28;20110;-46
2022/02/27 07:15:00;;;;;;;49.20;10.48;;;-0.10;99.90;;;;;;5089269;28;20062;-50
2022/02/27 07:17:26;;;;;;;127.13;15.25;;;-0.10;99.90;;;;;;5068042;28;20087;-47
2022/02/27 07:19:52;;;;;;;51.75;10.50;;;0.00;99.90;;;;;;5088583;28;20032;-47
2022/02/27 07:22:19;;;;;;;69.65;12.38;;;0.00;99.90;;;;;;5069189;28;20043;-51
2022/02/27 07:24:45;;;;;;;29.70;8.63;;;0.00;99.90;;;;;;5087941;28;20067;-48
2022/02/27 07:27:10;;;;;;;37.70;11.38;;;0.10;99.90;;;;;;5069589;28;20107;-49
2022/02/27 07:29:36;;;;;;;84.63;13.98;;;0.20;99.90;;;;;;5088388;28;20036;-47
2022/02/27 07:32:02;;;;;;;39.28;9.27;;;0.20;99.90;;;;;;5071153;28;20035;-48
2022/02/27 07:34:27;;;;;;;38.13;9.68;;;0.20;99.90;;;;;;5088266;28;20130;-48
2022/02/27 07:36:55;;;;;;;26.20;8.55;;;0.30;99.90;;;;;;5072473;28;20175;-50
2022/02/27 07:39:22;;;;;;;20.30;7.47;;;0.40;99.90;;;;;;5088496;28;20486;-47
2022/02/27 07:41:47;;;;;;;49.75;9.90;;;0.50;99.90;;;;;;5070216;28;20476;-49
2022/02/27 07:44:13;;;;;;;41.78;8.98;;;0.50;99.90;;;;;;5088798;28;20055;-46
2022/02/27 07:46:39;;;;;;;42.30;8.98;;;0.60;99.90;;;;;;5074235;28;20115;-47
2022/02/27 07:49:05;;;;;;;30.60;8.55;;;0.70;99.90;;;;;;5088249;28;20032;-49
2022/02/27 07:51:30;;;;;;;37.75;10.18;;;0.80;99.90;;;;;;5075288;28;20408;-47
2022/02/27 07:53:56;;;;;;;29.15;10.57;;;1.00;99.90;;;;;;5088135;28;20028;-49
2022/02/27 07:56:22;;;;;;;42.83;10.20;;;1.00;99.90;;;;;;5086827;28;20107;-50
2022/02/27 07:58:48;;;;;;;41.33;9.80;;;1.10;99.90;;;;;;5088673;28;20024;-47
2022/02/27 08:01:14;;;;;;;25.55;8.73;;;1.20;99.90;;;;;;5086815;28;20030;-50
2022/02/27 08:03:39;;;;;;;29.65;8.43;;;1.20;99.90;;;;;;5088631;28;20048;-51
2022/02/27 08:06:05;;;;;;;26.65;8.05;;;1.40;99.90;;;;;;5086633;28;20027;-51
2022/02/27 08:08:30;;;;;;;29.77;8.63;;;1.50;99.90;;;;;;5088503;28;20024;-48
2022/02/27 08:10:56;;;;;;;27.95;8.90;;;1.60;99.90;;;;;;5086514;28;20516;-48
2022/02/27 08:13:21;;;;;;;43.17;10.82;;;1.60;99.90;;;;;;5088775;28;20028;-51
2022/02/27 08:15:47;;;;;;;43.08;10.15;;;1.60;99.90;;;;;;5086502;28;20035;-49
2022/02/27 08:18:12;;;;;;;46.45;10.57;;;1.70;99.90;;;;;;5088741;28;20034;-51
2022/02/27 08:20:38;;;;;;;33.53;9.18;;;1.70;99.90;;;;;;5086524;28;20430;-49
2022/02/27 08:23:04;;;;;;;43.53;11.55;;;1.70;99.90;;;;;;5088191;28;20048;-50
2022/02/27 08:25:29;;;;;;;27.00;8.75;;;1.70;99.90;;;;;;5078185;28;20028;-49
2022/02/27 08:27:55;;;;;;;32.58;8.85;;;1.80;99.90;;;;;;5067047;28;20029;-47
2022/02/27 08:30:20;;;;;;;34.45;8.88;;;1.80;99.90;;;;;;5084595;28;20032;-47
2022/02/27 08:32:50;;;;;;;20.60;7.88;;;1.90;99.90;;;;;;5069686;28;20094;-47
2022/02/27 08:35:16;;;;;;;23.67;8.43;;;2.00;99.90;;;;;;5085343;28;20031;-48
2022/02/27 08:37:42;;;;;;;29.30;9.25;;;2.10;99.90;;;;;;5089759;28;20031;-50
2022/02/27 08:40:08;;;;;;;29.90;8.82;;;2.10;99.90;;;;;;5089034;28;20032;-47
2022/02/27 08:42:34;;;;;;;33.22;8.68;;;2.10;99.90;;;;;;5083879;28;20025;-50
2022/02/27 08:44:59;;;;;;;40.80;10.27;;;2.00;99.90;;;;;;5088914;28;20506;-51
2022/02/27 08:47:25;;;;;;;29.52;9.45;;;1.90;99.90;;;;;;5091290;28;20112;-47
2022/02/27 08:49:50;;;;;;;38.67;9.38;;;1.90;99.90;;;;;;5091023;28;20036;-47
2022/02/27 08:52:16;;;;;;;37.70;8.95;;;2.00;99.90;;;;;;5089064;28;20024;-47
2022/02/27 08:54:41;;;;;;;97.03;12.15;;;2.00;99.90;;;;;;5090787;28;20032;-47
2022/02/27 08:57:07;;;;;;;82.68;15.48;;;2.00;99.90;;;;;;5070004;28;20029;-51
2022/02/27 08:59:32;;;;;;;48.03;9.82;;;2.00;99.90;;;;;;5089593;28;20078;-48
2022/02/27 09:01:58;;;;;;;29.88;9.40;;;2.10;99.90;;;;;;5078960;28;20080;-49
2022/02/27 09:04:23;;;;;;;43.80;10.13;;;2.30;99.90;;;;;;5072899;28;20041;-51
2022/02/27 09:06:49;;;;;;;37.80;10.57;;;2.40;99.90;;;;;;5087933;28;20020;-49
2022/02/27 09:09:16;;;;;;;46.90;11.35;;;2.30;99.90;;;;;;5090479;28;20126;-48
2022/02/27 09:11:42;;;;;;;27.27;10.70;;;2.30;99.90;;;;;;5088563;28;20062;-52
2022/02/27 09:14:07;;;;;;;30.80;11.27;;;2.40;99.90;;;;;;5078268;28;20029;-52
2022/02/27 09:16:33;;;;;;;28.63;10.07;;;2.50;99.90;;;;;;5087832;28;20043;-50
2022/02/27 09:18:58;;;;;;;18.45;8.23;;;2.70;99.90;;;;;;5090450;28;20024;-49
2022/02/27 09:21:24;;;;;;;48.50;10.63;;;2.80;99.90;;;;;;5087964;28;20020;-48
2022/02/27 09:23:49;;;;;;;25.02;9.32;;;2.80;99.90;;;;;;5090105;28;20051;-48
2022/02/27 09:26:16;;;;;;;25.45;10.20;;;2.90;99.90;;;;;;5088180;28;20459;-49
2022/02/27 09:28:41;;;;;;;66.72;23.70;;;2.90;99.90;;;;;;5090378;28;20119;-48
2022/02/27 09:31:07;;;;;;;41.70;16.55;;;3.00;99.90;;;;;;5088153;28;20110;-51
2022/02/27 09:33:34;;;;;;;82.78;14.32;;;2.90;99.90;;;;;;5089797;28;20114;-49
2022/02/27 09:35:59;;;;;;;33.67;9.75;;;2.90;99.90;;;;;;5088213;28;20055;-51
2022/02/27 09:38:25;;;;;;;26.17;8.93;;;2.90;99.90;;;;;;5090162;28;20124;-52
2022/02/27 09:40:51;;;;;;;60.10;12.50;;;2.90;99.90;;;;;;5088016;28;20031;-49
2022/02/27 09:43:18;;;;;;;28.40;11.40;;;2.80;99.90;;;;;;5079427;28;20039;-53
2022/02/27 09:45:46;;;;;;;34.70;10.38;;;2.70;99.90;;;;;;5089789;28;20028;-49
2022/02/27 09:48:12;;;;;;;25.77;8.93;;;2.80;99.90;;;;;;5086932;28;20389;-48
2022/02/27 09:50:40;;;;;;;15.77;8.80;;;2.90;99.90;;;;;;5089886;28;20034;-49
2022/02/27 09:53:09;;;;;;;62.38;14.13;;;3.10;99.90;;;;;;5087902;28;20089;-48
2022/02/27 09:55:36;;;;;;;24.83;10.35;;;3.10;99.90;;;;;;5090019;28;20032;-51
2022/02/27 09:58:01;;;;;;;23.90;8.75;;;3.00;99.90;;;;;;5087619;28;20039;-50
2022/02/27 10:00:27;;;;;;;28.63;8.55;;;3.10;99.90;;;;;;5089786;28;20036;-47
2022/02/27 10:03:10;;;;;;;29.10;8.98;;;3.30;99.90;;;;;;5087591;28;20028;-47
2022/02/27 10:05:41;;;;;;;17.80;9.07;;;3.30;99.90;;;;;;5049475;28;20029;-48
2022/02/27 10:08:09;;;;;;;18.75;7.45;;;3.40;99.90;;;;;;5087315;28;20066;-52
2022/02/27 10:10:36;;;;;;;22.00;8.23;;;3.60;99.90;;;;;;5089315;28;20071;-49
2022/02/27 10:13:01;;;;;;;19.65;9.75;;;3.60;99.90;;;;;;5087391;28;20615;-48
2022/02/27 10:15:27;;;;;;;24.85;8.48;;;3.70;99.90;;;;;;5089531;28;20336;-47
2022/02/27 10:17:53;;;;;;;37.28;13.25;;;3.80;99.90;;;;;;5087299;28;20031;-47
2022/02/27 10:20:25;;;;;;;18.90;9.57;;;3.80;99.90;;;;;;5089684;28;20114;-48
2022/02/27 10:22:53;;;;;;;26.90;11.60;;;3.80;99.90;;;;;;5086613;28;20114;-46
2022/02/27 10:25:27;;;;;;;31.52;11.15;;;3.90;99.90;;;;;;5089367;28;20031;-47
2022/02/27 10:27:54;;;;;;;25.70;8.77;;;3.90;99.90;;;;;;5087006;28;20020;-49
2022/02/27 10:30:29;;;;;;;21.23;8.30;;;4.00;99.90;;;;;;5089398;28;20036;-50
2022/02/27 10:33:00;;;;;;;17.63;8.93;;;4.00;99.90;;;;;;5064264;28;20020;-49
2022/02/27 10:35:43;;;;;;;15.10;8.80;;;4.00;99.90;;;;;;5088853;28;20032;-46
2022/02/27 10:38:29;;;;;;;17.15;8.75;;;4.00;99.90;;;;;;5087273;28;20182;-49
2022/02/27 10:40:55;;;;;;;28.85;10.68;;;4.10;99.90;;;;;;5049135;28;20481;-47
2022/02/27 10:43:20;;;;;;;24.40;10.73;;;4.20;99.90;;;;;;5066275;28;20074;-48
2022/02/27 10:46:01;;;;;;;19.73;7.72;;;4.20;99.90;;;;;;5088094;28;20332;-50
2022/02/27 10:48:28;;;;;;;17.58;7.80;;;4.30;99.90;;;;;;5073085;28;20020;-51
2022/02/27 10:51:03;;;;;;;16.67;8.15;;;4.20;99.90;;;;;;5088700;28;20534;-47
2022/02/27 10:53:36;;;;;;;17.98;8.82;;;4.40;99.90;;;;;;5060031;28;20039;-48
2022/02/27 10:56:11;;;;;;;17.85;9.18;;;4.40;99.90;;;;;;5060565;28;20037;-58
2022/02/27 10:58:48;;;;;;;22.63;8.82;;;4.30;99.90;;;;;;5086565;28;20272;-61
2022/02/27 11:01:22;;;;;;;21.45;9.13;;;4.30;99.90;;;;;;5047236;28;20493;-61
2022/02/27 11:03:49;;;;;;;24.83;9.32;;;4.40;99.90;;;;;;5047094;28;20235;-60
2022/02/27 11:06:15;;;;;;;16.35;9.23;;;4.30;99.90;;;;;;5088495;28;20438;-59
2022/02/27 11:08:42;;;;;;;17.90;9.50;;;4.10;99.90;;;;;;5088381;28;20024;-61
2022/02/27 11:11:08;;;;;;;19.58;11.43;;;4.10;99.90;;;;;;5086444;28;20153;-61
2022/02/27 11:13:34;;;;;;;26.38;11.80;;;3.90;99.90;;;;;;5088103;28;20552;-61
2022/02/27 11:16:02;;;;;;;19.48;9.95;;;4.00;99.90;;;;;;5067283;28;20036;-61
2022/02/27 11:18:28;;;;;;;21.00;9.98;;;4.00;99.90;;;;;;5087667;28;20385;-61
2022/02/27 11:20:57;;;;;;;24.42;11.82;;;4.00;99.90;;;;;;5068308;28;20078;-61
2022/02/27 11:23:24;;;;;;;20.50;11.18;;;3.90;99.90;;;;;;5080332;28;20048;-61
2022/02/27 11:25:51;;;;;;;25.40;12.95;;;4.00;99.90;;;;;;5086243;28;20023;-61
2022/02/27 11:28:19;;;;;;;15.80;8.95;;;4.00;99.90;;;;;;5087996;28;20016;-61
2022/02/27 11:30:48;;;;;;;20.65;10.50;;;4.00;99.90;;;;;;5069345;28;20271;-61
2022/02/27 11:33:17;;;;;;;18.98;10.95;;;3.90;99.90;;;;;;5087703;28;20526;-60
2022/02/27 11:35:46;;;;;;;18.27;10.00;;;3.90;99.90;;;;;;5051204;28;20369;-61
2022/02/27 11:38:32;;;;;;;27.80;12.52;;;4.00;99.90;;;;;;5077173;28;20074;-61
2022/02/27 11:41:10;;;;;;;21.70;11.25;;;3.90;99.90;;;;;;5067624;28;20449;-61
2022/02/27 11:43:52;;;;;;;20.95;9.82;;;4.00;99.90;;;;;;5061969;28;20039;-61
2022/02/27 11:46:34;;;;;;;39.50;15.30;;;3.90;99.90;;;;;;5047800;28;20473;-61
2022/02/27 11:49:17;;;;;;;22.23;11.90;;;3.90;99.90;;;;;;5072058;28;20059;-60
2022/02/27 11:51:51;;;;;;;22.52;10.27;;;3.80;99.90;;;;;;5047697;28;20033;-60
2022/02/27 11:54:25;;;;;;;16.33;8.85;;;3.80;99.90;;;;;;5061459;28;20035;-61
2022/02/27 11:57:00;;;;;;;20.05;10.30;;;4.00;99.90;;;;;;5047641;28;20037;-60
2022/02/27 11:59:52;;;;;;;26.05;12.23;;;4.00;99.90;;;;;;5067523;28;20223;-61
2022/02/27 12:02:25;;;;;;;30.65;13.35;;;3.90;99.90;;;;;;5087018;28;20554;-61
2022/02/27 12:04:53;;;;;;;25.90;13.80;;;3.70;99.90;;;;;;5047366;28;20048;-61
2022/02/27 12:07:18;;;;;;;27.08;13.75;;;3.60;99.90;;;;;;5087077;28;20028;-60
2022/02/27 12:09:53;;;;;;;30.45;13.60;;;3.60;99.90;;;;;;5069386;28;20372;-60
2022/02/27 12:12:43;;;;;;;25.45;12.75;;;3.60;99.90;;;;;;5088707;28;20049;-60
2022/02/27 12:15:32;;;;;;;28.30;13.52;;;3.60;99.90;;;;;;5065831;28;20082;-61
2022/02/27 12:18:08;;;;;;;41.75;17.08;;;3.70;99.90;;;;;;5091501;28;20024;-61
2022/02/27 12:20:39;;;;;;;30.98;15.35;;;3.70;99.90;;;;;;5059406;28;20036;-61
2022/02/27 12:23:06;;;;;;;33.97;15.40;;;3.60;99.90;;;;;;5068163;28;20441;-61
2022/02/27 12:25:37;;;;;;;28.63;15.07;;;3.50;99.90;;;;;;5077167;28;20020;-60
2022/02/27 12:28:04;;;;;;;36.40;15.13;;;3.60;99.90;;;;;;5068832;28;20042;-61
2022/02/27 12:30:29;;;;;;;30.05;14.30;;;3.50;99.90;;;;;;5079808;28;20237;-60
2022/02/27 12:33:06;;;;;;;36.80;17.90;;;3.20;99.90;;;;;;5068530;28;20055;-60
2022/02/27 12:35:37;;;;;;;37.40;17.42;;;3.20;99.90;;;;;;5062440;28;20042;-61
2022/02/27 12:38:05;;;;;;;38.03;17.98;;;3.20;99.90;;;;;;5066283;28;20024;-61
2022/02/27 12:40:32;;;;;;;37.05;18.73;;;3.20;99.90;;;;;;5077057;28;20032;-61
2022/02/27 12:43:08;;;;;;;46.63;17.67;;;3.30;99.90;;;;;;5075554;28;20037;-61
2022/02/27 12:45:35;;;;;;;33.05;15.13;;;3.20;99.90;;;;;;5085546;28;20031;-60
2022/02/27 12:48:12;;;;;;;34.00;13.55;;;3.20;99.90;;;;;;5072476;28;20048;-61
2022/02/27 12:50:49;;;;;;;29.63;13.73;;;3.20;99.90;;;;;;5066846;28;20042;-60
2022/02/27 12:53:15;;;;;;;19.52;10.50;;;3.00;99.90;;;;;;5076686;28;20025;-60
2022/02/27 12:55:42;;;;;;;19.80;10.18;;;3.00;99.90;;;;;;5075056;28;20032;-60
2022/02/27 12:58:09;;;;;;;21.70;11.07;;;3.10;99.90;;;;;;5074761;28;20185;-61
2022/02/27 13:00:37;;;;;;;40.65;13.30;;;3.00;99.90;;;;;;5073447;28;20074;-61
2022/02/27 13:03:08;;;;;;;21.90;11.73;;;2.90;99.90;;;;;;5069783;28;20040;-61
2022/02/27 13:05:34;;;;;;;37.17;15.43;;;2.90;99.90;;;;;;5074803;28;20039;-61
2022/02/27 13:08:04;;;;;;;28.35;12.23;;;2.90;99.90;;;;;;5070833;28;20036;-60
2022/02/27 13:10:30;;;;;;;21.88;10.65;;;2.90;99.90;;;;;;5064729;28;20032;-61
2022/02/27 13:12:57;;;;;;;31.27;13.48;;;3.10;99.90;;;;;;5067873;28;20016;-61
2022/02/27 13:15:22;;;;;;;25.10;11.40;;;3.00;99.90;;;;;;5075959;28;20097;-61
2022/02/27 13:17:49;;;;;;;23.23;10.32;;;3.10;99.90;;;;;;5067875;28;20036;-60
2022/02/27 13:20:18;;;;;;;21.25;10.73;;;3.20;99.90;;;;;;5081988;28;20032;-60
2022/02/27 13:22:48;;;;;;;21.33;10.95;;;3.40;99.90;;;;;;5068368;28;20025;-60
2022/02/27 13:25:15;;;;;;;25.50;13.13;;;3.40;99.90;;;;;;5070153;28;20032;-61
2022/02/27 13:27:47;;;;;;;22.90;12.57;;;3.30;99.90;;;;;;5070129;28;20430;-60
2022/02/27 13:30:16;;;;;;;25.38;11.50;;;3.20;99.90;;;;;;5059973;28;20025;-60
2022/02/27 13:32:43;;;;;;;23.10;11.07;;;3.10;99.90;;;;;;5073585;28;20028;-60
2022/02/27 13:35:20;;;;;;;22.02;12.07;;;3.30;99.90;;;;;;5076962;28;20302;-61
2022/02/27 13:37:58;;;;;;;23.10;11.07;;;3.30;99.90;;;;;;5068291;28;20426;-61
2022/02/27 13:40:29;;;;;;;29.58;14.43;;;3.40;99.90;;;;;;5070203;28;20027;-59
2022/02/27 13:42:58;;;;;;;29.80;13.13;;;3.40;99.90;;;;;;5054838;28;20113;-61
2022/02/27 13:45:36;;;;;;;23.80;11.50;;;3.50;99.90;;;;;;5071062;28;20020;-61
2022/02/27 13:48:07;;;;;;;27.13;13.35;;;3.60;99.90;;;;;;5074681;28;20150;-58
2022/02/27 13:50:37;;;;;;;25.90;12.52;;;3.60;99.90;;;;;;5059971;28;20040;-61
2022/02/27 13:53:12;;;;;;;28.95;13.40;;;3.50;99.90;;;;;;5067430;28;20056;-61
2022/02/27 13:55:40;;;;;;;25.73;11.90;;;3.40;99.90;;;;;;5062915;28;20561;-61
2022/02/27 13:58:19;;;;;;;27.90;13.15;;;3.40;99.90;;;;;;5066790;28;20040;-60
2022/02/27 14:00:56;;;;;;;26.98;12.25;;;3.50;99.90;;;;;;5081050;28;20024;-60
2022/02/27 14:03:37;;;;;;;26.80;12.63;;;3.40;99.90;;;;;;5067025;28;20036;-61
2022/02/27 14:06:04;;;;;;;27.92;13.90;;;3.50;99.90;;;;;;5083569;28;20066;-61
2022/02/27 14:08:31;;;;;;;21.92;11.05;;;3.40;99.90;;;;;;5067941;28;20044;-61